Time;durP1;ratioP1;P1;durP2;ratioP2;P2;SDS_P1;SDS_P2;PMS_P1;PMS_P2;Temp;Humidity;BMP_temperature;BMP_pressure;BME280_temperature;BME280_humidity;BME280_pressure;Samples;Min_cycle;Max_cycle;Signal;HPM_P1;HPM_P2
2021/06/30 00:01:05;;;;;;;13.93;7.72;;;16.90;90.90;;;;;;5074314;28;20060;-89
2021/06/30 00:03:30;;;;;;;13.15;7.80;;;16.90;90.80;;;;;;5057814;28;20392;-90
2021/06/30 00:05:57;;;;;;;13.65;8.43;;;16.90;90.80;;;;;;5075064;28;20048;-89
2021/06/30 00:08:23;;;;;;;12.85;7.38;;;16.90;90.70;;;;;;5073878;28;20050;-89
2021/06/30 00:10:49;;;;;;;12.70;8.18;;;16.80;90.70;;;;;;5075949;28;20056;-90
2021/06/30 00:13:15;;;;;;;13.45;8.38;;;16.90;91.10;;;;;;5074873;28;20067;-89
2021/06/30 00:15:41;;;;;;;10.88;7.13;;;16.80;90.70;;;;;;5074604;28;20048;-90
2021/06/30 00:18:08;;;;;;;12.27;7.68;;;16.90;90.70;;;;;;5075727;28;20048;-92
2021/06/30 00:20:35;;;;;;;17.42;9.52;;;16.80;90.60;;;;;;5074953;28;20462;-87
2021/06/30 00:23:02;;;;;;;13.90;8.07;;;16.90;90.80;;;;;;5075657;28;20045;-90
2021/06/30 00:25:29;;;;;;;16.27;8.90;;;16.80;90.80;;;;;;5075091;28;20048;-93
2021/06/30 00:27:55;;;;;;;16.95;9.77;;;16.80;90.80;;;;;;5075317;28;20202;-89
2021/06/30 00:30:20;;;;;;;12.38;7.55;;;16.90;90.90;;;;;;5075280;28;20071;-91
2021/06/30 00:32:47;;;;;;;18.45;10.15;;;16.80;90.80;;;;;;5075314;28;20343;-90
2021/06/30 00:35:14;;;;;;;14.48;7.80;;;16.80;91.00;;;;;;5074625;28;20055;-92
2021/06/30 00:37:40;;;;;;;20.27;11.60;;;16.80;91.10;;;;;;5075254;28;20061;-88
2021/06/30 00:40:08;;;;;;;13.57;8.63;;;16.80;91.00;;;;;;5075138;28;20055;-92
2021/06/30 00:42:37;;;;;;;14.45;8.80;;;16.80;91.10;;;;;;5073744;28;20093;-93
2021/06/30 00:45:05;;;;;;;15.85;9.60;;;16.80;91.10;;;;;;5075327;28;20060;-92
2021/06/30 00:47:32;;;;;;;20.33;9.80;;;16.80;91.10;;;;;;5074573;28;20044;-92
2021/06/30 00:49:58;;;;;;;14.73;8.65;;;16.70;91.10;;;;;;5074069;28;20052;-91
2021/06/30 00:52:23;;;;;;;21.20;9.63;;;16.70;91.10;;;;;;5075046;28;20048;-92
2021/06/30 00:54:49;;;;;;;22.50;10.20;;;16.70;90.90;;;;;;5074801;28;20053;-92
2021/06/30 00:57:18;;;;;;;17.13;9.27;;;16.70;91.20;;;;;;5074149;28;20408;-89
2021/06/30 00:59:47;;;;;;;18.90;9.10;;;16.70;91.20;;;;;;5074539;28;20113;-90
2021/06/30 01:02:13;;;;;;;15.88;9.05;;;16.70;91.10;;;;;;5073661;28;20044;-89
2021/06/30 01:04:39;;;;;;;15.20;8.52;;;16.70;91.10;;;;;;5073595;28;20060;-90
2021/06/30 01:07:06;;;;;;;13.65;7.82;;;16.70;91.10;;;;;;5069817;28;20123;-90
2021/06/30 01:09:32;;;;;;;17.63;9.02;;;16.70;91.10;;;;;;5063137;28;20437;-90
2021/06/30 01:11:59;;;;;;;16.20;8.55;;;16.70;90.90;;;;;;5059185;28;20045;-88
2021/06/30 01:14:28;;;;;;;14.68;8.00;;;16.70;91.00;;;;;;5061655;28;20115;-90
2021/06/30 01:16:54;;;;;;;20.52;9.07;;;16.70;91.00;;;;;;5054144;28;20084;-90
2021/06/30 01:19:21;;;;;;;17.13;8.93;;;16.70;91.20;;;;;;5054661;28;20048;-89
2021/06/30 01:21:47;;;;;;;15.65;8.73;;;16.70;91.10;;;;;;5065418;28;20133;-91
2021/06/30 01:24:13;;;;;;;16.75;8.65;;;16.70;91.10;;;;;;5072894;28;20079;-90
2021/06/30 01:26:39;;;;;;;16.05;8.68;;;16.60;91.20;;;;;;5073815;28;20508;-91
2021/06/30 01:29:05;;;;;;;11.95;8.02;;;16.60;91.10;;;;;;5074307;28;20139;-90
2021/06/30 01:31:35;;;;;;;17.98;8.82;;;16.60;91.00;;;;;;5053244;28;20080;-90
2021/06/30 01:34:01;;;;;;;19.00;9.13;;;16.60;91.10;;;;;;5054209;28;20127;-90
2021/06/30 01:36:28;;;;;;;12.82;8.07;;;16.50;91.20;;;;;;5054027;28;20465;-91
2021/06/30 01:38:54;;;;;;;18.13;9.27;;;16.60;91.10;;;;;;5053538;28;20055;-89
2021/06/30 01:41:20;;;;;;;14.77;7.93;;;16.50;91.20;;;;;;5070062;28;20482;-92
2021/06/30 01:43:47;;;;;;;15.30;8.90;;;16.50;91.20;;;;;;5074010;28;20048;-93
2021/06/30 01:46:12;;;;;;;15.45;7.82;;;16.50;91.30;;;;;;5073507;28;20093;-92
2021/06/30 01:48:45;;;;;;;15.05;8.35;;;16.40;91.40;;;;;;5073459;28;20056;-93
2021/06/30 01:51:10;;;;;;;21.13;9.67;;;16.40;91.50;;;;;;5074319;28;20051;-92
2021/06/30 01:53:36;;;;;;;17.90;9.07;;;16.40;91.60;;;;;;5073131;28;20048;-91
2021/06/30 01:56:02;;;;;;;20.83;9.68;;;16.40;91.60;;;;;;5073532;28;20098;-89
2021/06/30 01:58:28;;;;;;;27.08;10.48;;;16.40;91.70;;;;;;5073304;28;20049;-89
2021/06/30 02:00:55;;;;;;;15.23;9.38;;;16.30;91.80;;;;;;5073201;28;20044;-90
2021/06/30 02:03:21;;;;;;;20.52;9.80;;;16.30;91.90;;;;;;5073598;28;20060;-91
2021/06/30 02:05:47;;;;;;;16.30;8.27;;;16.30;92.00;;;;;;5073579;28;20098;-91
2021/06/30 02:08:14;;;;;;;17.75;8.48;;;16.30;92.00;;;;;;5073009;28;20139;-90
2021/06/30 02:10:41;;;;;;;16.05;7.93;;;16.30;91.90;;;;;;5073583;28;20875;-91
2021/06/30 02:13:07;;;;;;;19.90;8.90;;;16.30;91.80;;;;;;5072961;28;20051;-91
2021/06/30 02:15:43;;;;;;;14.02;8.38;;;16.30;91.80;;;;;;5073912;28;20048;-92
2021/06/30 02:18:10;;;;;;;17.55;8.52;;;16.30;91.80;;;;;;5073588;28;20052;-90
2021/06/30 02:20:36;;;;;;;14.52;8.35;;;16.30;91.80;;;;;;5072551;28;20063;-89
2021/06/30 02:23:02;;;;;;;15.75;8.10;;;16.30;91.80;;;;;;5073273;28;20068;-91
2021/06/30 02:25:29;;;;;;;14.27;7.95;;;16.30;91.90;;;;;;5073381;28;20048;-92
2021/06/30 02:27:56;;;;;;;13.52;7.15;;;16.30;91.90;;;;;;5073187;28;20051;-91
2021/06/30 02:30:28;;;;;;;13.98;7.32;;;16.30;91.70;;;;;;5073528;28;20049;-93
2021/06/30 02:32:56;;;;;;;16.15;7.95;;;16.30;91.50;;;;;;5073584;28;20123;-92
2021/06/30 02:35:24;;;;;;;14.40;7.15;;;16.30;91.70;;;;;;5072855;28;20428;-92
2021/06/30 02:37:51;;;;;;;13.80;7.38;;;16.30;91.70;;;;;;5055495;28;20452;-89
2021/06/30 02:40:19;;;;;;;13.45;7.88;;;16.30;91.60;;;;;;5073117;28;20059;-88
2021/06/30 02:42:46;;;;;;;14.43;6.85;;;16.30;91.70;;;;;;5071576;28;20048;-91
2021/06/30 02:45:16;;;;;;;12.57;6.57;;;16.30;91.70;;;;;;5072716;28;20048;-90
2021/06/30 02:47:43;;;;;;;11.57;6.93;;;16.30;91.80;;;;;;5072770;28;20346;-89
2021/06/30 02:50:10;;;;;;;11.23;7.00;;;16.30;91.70;;;;;;5072095;28;20067;-88
2021/06/30 02:52:37;;;;;;;11.50;6.72;;;16.30;91.70;;;;;;5072704;28;20059;-90
2021/06/30 02:55:07;;;;;;;11.05;7.20;;;16.20;91.70;;;;;;5072738;28;20045;-90
2021/06/30 02:57:33;;;;;;;13.60;7.35;;;16.20;91.70;;;;;;5071949;28;20048;-89
2021/06/30 02:59:59;;;;;;;11.43;6.97;;;16.20;91.80;;;;;;5072954;28;20049;-89
2021/06/30 03:02:25;;;;;;;10.00;6.50;;;16.20;91.80;;;;;;5072448;28;20136;-89
2021/06/30 03:04:50;;;;;;;12.45;6.65;;;16.20;91.80;;;;;;5074046;28;20400;-89
2021/06/30 03:07:16;;;;;;;13.00;6.70;;;16.10;91.80;;;;;;5076607;28;20076;-91
2021/06/30 03:09:43;;;;;;;9.63;6.30;;;16.10;91.80;;;;;;5075440;28;20060;-88
2021/06/30 03:12:09;;;;;;;13.25;6.78;;;16.10;91.80;;;;;;5076184;28;20071;-90
2021/06/30 03:14:35;;;;;;;10.23;6.38;;;16.10;91.70;;;;;;5053574;28;20098;-88
2021/06/30 03:17:01;;;;;;;11.02;6.63;;;16.10;91.70;;;;;;5056691;28;20455;-90
2021/06/30 03:19:30;;;;;;;9.98;6.10;;;16.10;91.70;;;;;;5060404;28;20518;-89
2021/06/30 03:21:55;;;;;;;9.60;6.43;;;16.10;91.60;;;;;;5076080;28;20057;-89
2021/06/30 03:24:21;;;;;;;12.02;6.57;;;16.10;91.70;;;;;;5075814;28;20044;-88
2021/06/30 03:26:47;;;;;;;10.15;6.00;;;16.10;91.70;;;;;;5067727;28;20420;-89
2021/06/30 03:29:13;;;;;;;9.40;6.32;;;16.10;91.70;;;;;;5056067;28;20053;-90
2021/06/30 03:31:39;;;;;;;9.43;6.35;;;16.10;91.70;;;;;;5064245;28;20105;-90
2021/06/30 03:34:04;;;;;;;9.32;5.82;;;16.10;91.70;;;;;;5076574;28;20396;-89
2021/06/30 03:36:30;;;;;;;11.43;6.57;;;16.10;91.60;;;;;;5075671;28;20412;-90
2021/06/30 03:38:56;;;;;;;11.65;6.30;;;16.10;91.70;;;;;;5074878;28;20186;-89
2021/06/30 03:41:23;;;;;;;8.65;6.10;;;16.10;91.80;;;;;;5075299;28;20098;-89
2021/06/30 03:43:49;;;;;;;11.25;6.50;;;16.10;91.70;;;;;;5075867;28;20056;-91
2021/06/30 03:46:15;;;;;;;13.45;6.68;;;16.10;91.80;;;;;;5075475;28;20048;-90
2021/06/30 03:48:41;;;;;;;10.60;6.15;;;16.10;91.70;;;;;;5075409;28;20051;-88
2021/06/30 03:51:06;;;;;;;9.25;5.82;;;16.10;91.70;;;;;;5076160;28;20139;-90
2021/06/30 03:53:32;;;;;;;10.60;6.25;;;16.10;91.70;;;;;;5057073;28;20076;-86
2021/06/30 03:55:58;;;;;;;10.95;6.13;;;16.00;91.60;;;;;;5075679;28;20075;-90
2021/06/30 03:58:23;;;;;;;14.30;7.20;;;16.00;91.70;;;;;;5075512;28;20090;-86
2021/06/30 04:00:49;;;;;;;10.25;6.43;;;16.00;91.70;;;;;;5075066;28;20505;-90
2021/06/30 04:03:18;;;;;;;11.05;6.25;;;16.00;91.80;;;;;;5076064;28;20040;-87
2021/06/30 04:05:44;;;;;;;11.77;6.78;;;16.00;91.80;;;;;;5074409;28;20051;-91
2021/06/30 04:08:11;;;;;;;8.00;5.60;;;16.00;91.60;;;;;;5074940;28;20052;-91
2021/06/30 04:10:39;;;;;;;11.95;6.20;;;16.10;91.50;;;;;;5075615;28;20064;-90
2021/06/30 04:13:05;;;;;;;9.77;6.07;;;16.10;91.60;;;;;;5074826;28;20052;-90
2021/06/30 04:15:31;;;;;;;8.52;5.43;;;16.10;91.60;;;;;;5074746;28;20048;-88
2021/06/30 04:18:00;;;;;;;8.60;5.80;;;16.10;91.40;;;;;;5074690;28;20074;-91
2021/06/30 04:20:28;;;;;;;10.70;6.10;;;16.10;91.30;;;;;;5074158;28;20044;-91
2021/06/30 04:22:54;;;;;;;14.95;7.43;;;16.10;91.40;;;;;;5075237;28;20051;-88
2021/06/30 04:25:19;;;;;;;10.73;6.10;;;16.00;91.40;;;;;;5075088;28;20381;-93
2021/06/30 04:27:45;;;;;;;11.55;6.38;;;16.00;91.30;;;;;;5074721;28;20056;-92
2021/06/30 04:30:11;;;;;;;8.48;5.70;;;16.10;91.30;;;;;;5074705;28;20059;-89
2021/06/30 04:32:37;;;;;;;12.80;6.28;;;16.10;91.30;;;;;;5075338;28;20127;-92
2021/06/30 04:35:05;;;;;;;9.43;5.60;;;16.00;91.30;;;;;;5075059;28;20045;-92
2021/06/30 04:37:30;;;;;;;9.77;5.93;;;16.10;91.30;;;;;;5074673;28;20075;-89
2021/06/30 04:39:56;;;;;;;16.45;7.22;;;16.10;91.00;;;;;;5075186;28;20083;-88
2021/06/30 04:42:21;;;;;;;11.90;6.25;;;16.00;91.10;;;;;;5074110;28;20416;-90
2021/06/30 04:44:47;;;;;;;11.52;6.53;;;16.00;91.00;;;;;;5075217;28;20048;-92
2021/06/30 04:47:13;;;;;;;10.23;6.03;;;16.10;91.30;;;;;;5074548;28;20048;-89
2021/06/30 04:49:39;;;;;;;12.60;6.88;;;16.00;91.20;;;;;;5074521;28;20056;-89
2021/06/30 04:52:05;;;;;;;11.50;6.03;;;16.10;91.30;;;;;;5075242;28;20041;-94
2021/06/30 04:54:30;;;;;;;9.40;5.85;;;16.10;91.20;;;;;;5074774;28;20052;-88
2021/06/30 04:56:56;;;;;;;10.95;6.45;;;16.00;91.20;;;;;;5074421;28;20408;-90
2021/06/30 04:59:23;;;;;;;13.48;6.57;;;16.00;91.20;;;;;;5074383;28;20086;-89
2021/06/30 05:01:50;;;;;;;9.98;6.32;;;16.00;91.30;;;;;;5074303;28;20476;-95
2021/06/30 05:04:16;;;;;;;10.48;6.43;;;16.00;91.40;;;;;;5072878;28;20416;-88
2021/06/30 05:06:42;;;;;;;13.68;7.05;;;16.00;91.40;;;;;;5073505;28;20053;-89
2021/06/30 05:09:07;;;;;;;18.17;8.23;;;16.00;91.40;;;;;;5074157;28;20055;-92
2021/06/30 05:11:35;;;;;;;12.77;7.18;;;16.00;91.50;;;;;;5064962;28;20049;-90
2021/06/30 05:14:00;;;;;;;14.90;7.65;;;16.00;91.60;;;;;;5061589;28;20106;-90
2021/06/30 05:16:26;;;;;;;15.95;7.53;;;15.90;91.60;;;;;;5056326;28;20060;-91
2021/06/30 05:18:52;;;;;;;12.60;6.85;;;15.90;91.70;;;;;;5075091;28;20068;-93
2021/06/30 05:21:18;;;;;;;12.48;7.03;;;15.90;91.60;;;;;;5074396;28;20045;-92
2021/06/30 05:23:44;;;;;;;12.52;6.78;;;15.80;91.80;;;;;;5072937;28;20056;-93
2021/06/30 05:26:10;;;;;;;14.57;8.13;;;15.80;91.70;;;;;;5070451;28;20052;-95
2021/06/30 05:28:36;;;;;;;13.60;6.80;;;15.80;91.80;;;;;;5075290;28;20098;-92
2021/06/30 05:31:01;;;;;;;12.50;6.70;;;15.80;91.60;;;;;;5070843;28;20463;-87
2021/06/30 05:33:32;;;;;;;16.23;7.05;;;15.80;91.60;;;;;;5069957;28;20052;-81
2021/06/30 05:35:58;;;;;;;13.27;7.20;;;15.80;91.60;;;;;;5053360;28;20045;-82
2021/06/30 05:38:24;;;;;;;17.05;7.28;;;15.80;91.60;;;;;;5068838;28;20055;-82
2021/06/30 05:40:51;;;;;;;12.35;7.00;;;15.80;91.70;;;;;;5073418;28;20131;-82
2021/06/30 05:43:17;;;;;;;14.98;7.07;;;15.80;91.80;;;;;;5072099;28;20052;-90
2021/06/30 05:45:43;;;;;;;16.55;8.27;;;15.80;91.80;;;;;;5070938;28;20407;-88
2021/06/30 05:48:09;;;;;;;15.20;7.32;;;15.80;91.80;;;;;;5072466;28;20135;-86
2021/06/30 05:50:35;;;;;;;13.68;6.72;;;15.90;91.90;;;;;;5066210;28;20132;-92
2021/06/30 05:53:01;;;;;;;19.83;7.97;;;15.80;91.90;;;;;;5071650;28;20040;-90
2021/06/30 05:55:27;;;;;;;11.75;6.60;;;15.80;91.90;;;;;;5069757;28;20485;-92
2021/06/30 05:57:52;;;;;;;16.75;7.70;;;15.80;91.80;;;;;;5065823;28;20055;-90
2021/06/30 06:00:20;;;;;;;18.02;8.32;;;15.90;91.80;;;;;;5069075;28;20053;-86
2021/06/30 06:02:46;;;;;;;13.50;7.03;;;15.90;91.90;;;;;;5066193;28;20083;-89
2021/06/30 06:05:12;;;;;;;22.02;8.80;;;15.80;91.80;;;;;;5070779;28;20052;-89
2021/06/30 06:07:38;;;;;;;17.15;7.90;;;15.90;92.00;;;;;;5074102;28;20044;-92
2021/06/30 06:10:08;;;;;;;14.90;7.55;;;15.80;91.90;;;;;;5076142;28;20053;-95
2021/06/30 06:12:38;;;;;;;21.25;8.95;;;15.80;91.90;;;;;;5074599;28;20049;-94
2021/06/30 06:15:06;;;;;;;14.05;6.35;;;15.80;92.00;;;;;;5068910;28;20125;-96
2021/06/30 06:17:32;;;;;;;18.23;7.93;;;15.80;92.00;;;;;;5075774;28;20477;-93
2021/06/30 06:19:57;;;;;;;15.80;7.55;;;15.80;92.20;;;;;;5076433;28;20070;-93
2021/06/30 06:22:23;;;;;;;25.35;8.48;;;15.80;91.90;;;;;;5074772;28;20047;-95
2021/06/30 06:24:49;;;;;;;18.15;8.02;;;15.80;91.90;;;;;;5075608;28;20404;-96
2021/06/30 06:27:14;;;;;;;14.85;7.45;;;15.80;91.80;;;;;;5073635;28;20045;-96
2021/06/30 06:29:40;;;;;;;12.27;6.70;;;15.80;91.80;;;;;;5073179;28;20052;-93
2021/06/30 06:32:06;;;;;;;14.50;7.38;;;15.90;91.80;;;;;;5076624;28;20045;-93
2021/06/30 06:34:32;;;;;;;14.82;7.50;;;15.90;91.90;;;;;;5075072;28;20055;-93
2021/06/30 06:37:02;;;;;;;10.75;6.70;;;15.90;91.90;;;;;;5074304;28;20496;-95
2021/06/30 06:39:28;;;;;;;18.90;8.43;;;15.90;91.90;;;;;;5074915;28;20412;-93
2021/06/30 06:41:54;;;;;;;14.10;7.45;;;15.90;91.90;;;;;;5079061;28;20493;-94
2021/06/30 06:44:20;;;;;;;17.85;7.68;;;15.90;91.80;;;;;;5080354;28;20542;-95
2021/06/30 06:46:46;;;;;;;18.13;7.25;;;16.00;91.90;;;;;;5081733;28;20076;-91
2021/06/30 06:49:12;;;;;;;18.33;8.27;;;15.90;91.80;;;;;;5080729;28;20059;-89
2021/06/30 06:51:39;;;;;;;15.43;7.00;;;15.90;91.90;;;;;;5079800;28;20052;-94
2021/06/30 06:54:06;;;;;;;14.88;7.25;;;15.90;92.10;;;;;;5080348;28;20049;-94
2021/06/30 06:56:32;;;;;;;15.60;7.13;;;15.90;91.80;;;;;;5080495;28;20048;-94
2021/06/30 06:58:58;;;;;;;20.20;7.68;;;15.90;91.70;;;;;;5081462;28;20397;-96
2021/06/30 07:01:24;;;;;;;17.50;7.70;;;15.90;91.80;;;;;;5081347;28;20056;-95
2021/06/30 07:03:51;;;;;;;16.58;6.82;;;15.90;91.80;;;;;;5082315;28;20053;-94
2021/06/30 07:06:17;;;;;;;14.05;7.07;;;15.90;91.70;;;;;;5083674;28;20044;-94
2021/06/30 07:08:43;;;;;;;21.88;8.23;;;15.90;91.70;;;;;;5081745;28;20132;-94
2021/06/30 07:11:09;;;;;;;19.45;7.50;;;16.00;92.00;;;;;;5081123;28;20127;-92
2021/06/30 07:13:36;;;;;;;14.90;6.70;;;16.00;92.10;;;;;;5086528;28;20074;-93
2021/06/30 07:16:04;;;;;;;17.85;7.47;;;16.00;92.00;;;;;;5089477;28;20097;-93
2021/06/30 07:18:33;;;;;;;14.65;7.13;;;15.90;92.00;;;;;;5085271;28;20060;-91
2021/06/30 07:21:01;;;;;;;16.17;7.15;;;16.00;91.90;;;;;;5088889;28;20047;-95
2021/06/30 07:23:27;;;;;;;13.43;6.68;;;16.00;91.90;;;;;;5090129;28;20045;-93
2021/06/30 07:25:54;;;;;;;15.15;7.10;;;16.00;91.80;;;;;;5087704;28;20439;-93
2021/06/30 07:28:20;;;;;;;18.17;7.03;;;16.00;91.90;;;;;;5087050;28;20052;-92
2021/06/30 07:30:46;;;;;;;15.38;7.22;;;16.00;91.80;;;;;;5088468;28;20067;-93
2021/06/30 07:33:12;;;;;;;16.42;6.80;;;16.00;91.90;;;;;;5087697;28;20040;-91
2021/06/30 07:35:38;;;;;;;19.02;7.47;;;16.00;92.10;;;;;;5079359;28;20045;-91
2021/06/30 07:38:04;;;;;;;18.88;7.80;;;16.10;91.80;;;;;;5080366;28;20070;-91
2021/06/30 07:40:30;;;;;;;15.95;6.97;;;16.10;91.80;;;;;;5081327;28;20045;-94
2021/06/30 07:42:56;;;;;;;17.75;7.00;;;16.10;91.80;;;;;;5083170;28;20050;-96
2021/06/30 07:45:22;;;;;;;21.33;8.00;;;16.10;91.80;;;;;;5083585;28;20136;-95
2021/06/30 07:47:48;;;;;;;15.95;6.75;;;16.10;91.90;;;;;;5100560;28;20135;-96
2021/06/30 07:50:16;;;;;;;15.23;6.95;;;16.10;91.80;;;;;;5098821;28;20056;-92
2021/06/30 07:52:44;;;;;;;16.35;7.75;;;16.10;91.80;;;;;;5093439;28;20055;-95
2021/06/30 07:55:10;;;;;;;13.98;7.30;;;16.10;91.90;;;;;;5080975;28;20476;-92
2021/06/30 07:57:39;;;;;;;13.57;6.90;;;16.10;91.80;;;;;;5079370;28;20139;-92
2021/06/30 08:00:06;;;;;;;14.70;7.05;;;16.10;91.80;;;;;;5073130;28;20053;-96
2021/06/30 08:02:33;;;;;;;16.45;6.45;;;16.10;91.70;;;;;;5082113;28;20132;-96
2021/06/30 08:04:59;;;;;;;17.35;7.35;;;16.10;91.60;;;;;;5079179;28;20059;-93
2021/06/30 08:07:25;;;;;;;18.05;7.78;;;16.10;91.70;;;;;;5081179;28;20064;-95
2021/06/30 08:09:51;;;;;;;18.75;6.85;;;16.20;92.10;;;;;;5079700;28;20048;-95
2021/06/30 08:12:16;;;;;;;15.27;6.88;;;16.20;91.60;;;;;;5079067;28;20083;-96
2021/06/30 08:14:43;;;;;;;12.90;6.57;;;16.20;91.60;;;;;;5081354;28;20114;-94
2021/06/30 08:17:09;;;;;;;15.05;6.60;;;16.20;91.60;;;;;;5080819;28;20123;-94
2021/06/30 08:19:35;;;;;;;15.38;6.82;;;16.20;91.60;;;;;;5081036;28;20068;-95
2021/06/30 08:22:01;;;;;;;13.40;6.93;;;16.20;91.50;;;;;;5078104;28;20080;-94
2021/06/30 08:24:27;;;;;;;12.07;6.22;;;16.20;91.50;;;;;;5080606;28;20045;-95
2021/06/30 08:26:54;;;;;;;16.13;6.78;;;16.20;91.60;;;;;;5077327;28;20484;-93
2021/06/30 08:29:21;;;;;;;11.80;6.25;;;16.20;91.60;;;;;;5077684;28;20053;-95
2021/06/30 08:31:47;;;;;;;15.02;6.45;;;16.20;91.60;;;;;;5077714;28;20481;-93
2021/06/30 08:34:13;;;;;;;13.50;5.72;;;16.20;91.60;;;;;;5077262;28;20048;-93
2021/06/30 08:36:38;;;;;;;11.63;6.18;;;16.20;91.60;;;;;;5075977;28;20059;-95
2021/06/30 08:39:05;;;;;;;15.10;6.55;;;16.30;91.70;;;;;;5076679;28;20040;-92
2021/06/30 08:41:31;;;;;;;16.10;6.25;;;16.30;91.70;;;;;;5077075;28;20048;-94
2021/06/30 08:44:00;;;;;;;13.90;6.10;;;16.30;91.70;;;;;;5076534;28;20453;-95
2021/06/30 08:46:26;;;;;;;14.43;6.05;;;16.30;91.70;;;;;;5076538;28;20066;-94
2021/06/30 08:48:57;;;;;;;12.65;5.90;;;16.30;91.70;;;;;;5076255;28;20094;-95
2021/06/30 08:51:27;;;;;;;11.30;5.57;;;16.30;91.70;;;;;;5076628;28;20123;-94
2021/06/30 08:53:55;;;;;;;13.57;5.78;;;16.30;91.70;;;;;;5076511;28;20049;-94
2021/06/30 08:56:30;;;;;;;12.05;5.75;;;16.30;91.70;;;;;;5077227;28;20102;-96
2021/06/30 08:58:57;;;;;;;11.10;5.38;;;16.30;91.70;;;;;;5077276;28;20445;-95
2021/06/30 09:01:23;;;;;;;12.43;5.55;;;16.30;91.60;;;;;;5076387;28;20052;-96
2021/06/30 09:03:51;;;;;;;11.68;5.72;;;16.30;91.60;;;;;;5077504;28;20102;-95
2021/06/30 09:06:20;;;;;;;12.77;5.50;;;16.40;91.60;;;;;;5078223;28;20412;-94
2021/06/30 09:08:46;;;;;;;13.75;6.07;;;16.40;91.60;;;;;;5076467;28;20115;-94
2021/06/30 09:11:25;;;;;;;12.93;5.32;;;16.40;91.60;;;;;;5075827;28;20049;-88
2021/06/30 09:14:09;;;;;;;14.48;5.63;;;16.40;91.40;;;;;;5073463;28;20141;-88
2021/06/30 09:16:57;;;;;;;10.52;5.07;;;16.40;91.30;;;;;;5071427;28;20052;-92
2021/06/30 09:19:46;;;;;;;11.00;5.15;;;16.50;91.30;;;;;;5073222;28;20041;-90
2021/06/30 09:22:13;;;;;;;10.40;4.40;;;16.50;91.30;;;;;;5074430;28;20051;-89
2021/06/30 09:24:39;;;;;;;14.57;5.30;;;16.50;91.30;;;;;;5076060;28;20051;-90
2021/06/30 09:27:05;;;;;;;9.98;4.90;;;16.50;91.20;;;;;;5075557;28;20136;-91
2021/06/30 09:29:31;;;;;;;13.13;4.90;;;16.50;91.10;;;;;;5074009;28;20056;-92
2021/06/30 09:31:57;;;;;;;12.23;4.88;;;16.50;91.00;;;;;;5074089;28;20134;-90
2021/06/30 09:34:24;;;;;;;8.85;4.45;;;16.50;90.90;;;;;;5071827;28;20135;-91
2021/06/30 09:37:01;;;;;;;9.20;4.20;;;16.50;90.90;;;;;;5074016;28;20074;-89
2021/06/30 09:39:27;;;;;;;11.15;5.10;;;16.50;91.20;;;;;;5072793;28;20055;-89
2021/06/30 09:42:13;;;;;;;10.52;4.32;;;16.50;91.00;;;;;;5068587;28;20049;-90
2021/06/30 09:44:42;;;;;;;12.63;4.72;;;16.50;90.70;;;;;;5070057;28;20056;-91
2021/06/30 09:47:08;;;;;;;9.18;4.72;;;16.60;91.00;;;;;;5076591;28;20071;-89
2021/06/30 09:49:39;;;;;;;11.23;4.88;;;16.60;91.00;;;;;;5075097;28;20087;-89
2021/06/30 09:52:20;;;;;;;11.73;4.35;;;16.60;90.90;;;;;;5073772;28;20435;-90
2021/06/30 09:54:48;;;;;;;9.23;4.15;;;16.70;91.20;;;;;;5074155;28;20052;-89
2021/06/30 09:57:17;;;;;;;11.07;4.30;;;16.70;90.90;;;;;;5073569;28;20412;-89
2021/06/30 09:59:45;;;;;;;9.05;4.38;;;16.70;90.80;;;;;;5073490;28;20102;-90
2021/06/30 10:02:19;;;;;;;7.93;4.00;;;16.70;90.80;;;;;;5073150;28;20500;-90
2021/06/30 10:04:58;;;;;;;7.60;3.63;;;16.70;90.80;;;;;;5072001;28;20072;-90
2021/06/30 10:07:28;;;;;;;8.63;4.18;;;16.80;90.70;;;;;;5053192;28;20128;-90
2021/06/30 10:09:58;;;;;;;8.35;3.80;;;16.70;90.80;;;;;;5053230;28;20052;-90
2021/06/30 10:12:27;;;;;;;9.52;3.55;;;16.80;90.80;;;;;;5052526;28;20045;-89
2021/06/30 10:14:54;;;;;;;7.97;4.00;;;16.80;90.60;;;;;;5065816;28;20056;-89
2021/06/30 10:17:22;;;;;;;10.50;3.95;;;16.80;90.80;;;;;;5072288;28;20044;-89
2021/06/30 10:19:51;;;;;;;9.15;3.80;;;16.80;90.80;;;;;;5071493;28;20048;-89
2021/06/30 10:22:17;;;;;;;8.23;3.78;;;16.80;90.80;;;;;;5073057;28;20128;-89
2021/06/30 10:24:44;;;;;;;6.55;3.55;;;16.90;90.80;;;;;;5072295;28;20450;-89
2021/06/30 10:27:11;;;;;;;9.32;4.32;;;16.90;90.80;;;;;;5069473;28;20686;-90
2021/06/30 10:29:40;;;;;;;7.22;3.72;;;16.90;90.90;;;;;;5068767;28;20060;-91
2021/06/30 10:32:16;;;;;;;10.60;4.93;;;17.00;90.90;;;;;;5052943;28;20049;-91
2021/06/30 10:34:47;;;;;;;8.88;4.40;;;17.00;90.90;;;;;;5052107;28;20057;-91
2021/06/30 10:37:27;;;;;;;8.82;3.70;;;17.00;90.70;;;;;;5052758;28;20072;-90
2021/06/30 10:40:08;;;;;;;9.50;3.85;;;17.00;90.60;;;;;;5070913;28;20048;-89
2021/06/30 10:42:43;;;;;;;7.47;3.60;;;16.90;90.40;;;;;;5072604;28;20048;-92
2021/06/30 10:45:18;;;;;;;7.50;3.78;;;16.90;90.40;;;;;;5072921;28;20496;-89
2021/06/30 10:48:03;;;;;;;8.70;3.63;;;16.90;90.50;;;;;;5070053;28;20392;-91
2021/06/30 10:50:43;;;;;;;8.70;3.47;;;16.90;90.20;;;;;;5069985;28;20131;-89
2021/06/30 10:53:14;;;;;;;8.80;3.55;;;16.80;90.30;;;;;;5069619;28;20044;-92
2021/06/30 10:55:41;;;;;;;7.78;3.30;;;16.80;90.30;;;;;;5058098;28;20432;-93
2021/06/30 10:58:13;;;;;;;6.63;3.50;;;16.80;90.50;;;;;;5059701;28;20388;-92
2021/06/30 11:00:54;;;;;;;9.07;3.92;;;16.70;90.70;;;;;;5064730;28;20056;-91
2021/06/30 11:03:28;;;;;;;8.32;4.00;;;16.70;90.70;;;;;;5053602;28;20059;-96
2021/06/30 11:06:14;;;;;;;7.57;3.65;;;16.70;90.90;;;;;;5075853;28;20473;-96
2021/06/30 11:08:49;;;;;;;6.80;3.28;;;16.70;91.00;;;;;;5075036;28;20048;-95
2021/06/30 11:11:27;;;;;;;8.18;3.80;;;16.80;91.00;;;;;;5073242;28;20052;-96
2021/06/30 11:13:59;;;;;;;9.98;3.88;;;16.80;90.80;;;;;;5073071;28;20048;-96
2021/06/30 11:19:21;;;;;;;10.95;4.00;;;16.80;90.70;;;;;;5071134;28;20083;-95
2021/06/30 11:22:11;;;;;;;9.75;3.95;;;16.80;90.70;;;;;;5053779;28;20048;-93
2021/06/30 11:24:44;;;;;;;9.05;4.40;;;16.80;90.80;;;;;;5071207;28;20052;-90
2021/06/30 11:27:12;;;;;;;10.57;4.20;;;16.80;90.70;;;;;;5070228;28;20047;-87
2021/06/30 11:29:44;;;;;;;9.57;3.90;;;16.80;90.70;;;;;;5067361;28;20341;-86
2021/06/30 11:32:32;;;;;;;8.00;3.78;;;16.80;90.90;;;;;;5073449;28;20041;-87
2021/06/30 11:35:01;;;;;;;11.10;4.30;;;16.80;90.80;;;;;;5073874;28;20040;-89
2021/06/30 11:37:27;;;;;;;8.15;3.95;;;16.80;90.70;;;;;;5074497;28;20256;-89
2021/06/30 11:39:58;;;;;;;9.05;4.30;;;16.80;90.80;;;;;;5076540;28;20388;-89
2021/06/30 11:42:35;;;;;;;9.95;3.92;;;16.80;90.90;;;;;;5072577;28;20105;-88
2021/06/30 11:45:01;;;;;;;10.07;4.50;;;16.80;90.90;;;;;;5066758;28;20080;-86
2021/06/30 11:47:27;;;;;;;9.27;4.10;;;16.90;91.00;;;;;;5073601;28;20048;-87
2021/06/30 11:50:03;;;;;;;10.43;4.50;;;16.90;91.00;;;;;;5073975;28;20060;-85
2021/06/30 11:52:29;;;;;;;8.43;3.90;;;16.90;90.90;;;;;;5072770;28;20041;-86
2021/06/30 11:54:56;;;;;;;6.85;3.55;;;17.00;90.90;;;;;;5071794;28;20045;-88
2021/06/30 11:57:22;;;;;;;8.15;3.85;;;17.00;91.00;;;;;;5073858;28;20447;-87
2021/06/30 11:59:59;;;;;;;10.18;4.53;;;17.00;91.00;;;;;;5075085;28;20048;-86
2021/06/30 12:02:25;;;;;;;7.25;4.30;;;17.00;90.90;;;;;;5073666;28;20063;-89
2021/06/30 12:04:51;;;;;;;8.88;4.30;;;17.00;90.80;;;;;;5074342;28;20484;-89
2021/06/30 12:07:16;;;;;;;6.60;3.70;;;17.00;90.80;;;;;;5075914;28;20052;-88
2021/06/30 12:09:42;;;;;;;10.27;5.18;;;17.10;90.80;;;;;;5072956;28;20044;-87
2021/06/30 12:12:12;;;;;;;10.68;3.97;;;17.10;90.80;;;;;;5074657;28;20052;-87
2021/06/30 12:14:45;;;;;;;6.82;3.70;;;17.10;90.70;;;;;;5074856;28;20037;-87
2021/06/30 12:17:14;;;;;;;7.55;3.80;;;17.10;90.70;;;;;;5074159;28;20139;-86
2021/06/30 12:19:45;;;;;;;10.23;4.18;;;17.10;90.80;;;;;;5073150;28;20052;-86
2021/06/30 12:22:26;;;;;;;8.07;4.10;;;17.10;90.70;;;;;;5057038;28;20087;-88
2021/06/30 12:25:19;;;;;;;9.15;3.97;;;17.10;90.70;;;;;;5071093;28;20052;-87
2021/06/30 12:27:47;;;;;;;8.95;4.30;;;17.10;90.70;;;;;;5063137;28;20437;-88
2021/06/30 12:30:24;;;;;;;7.78;4.00;;;17.10;90.60;;;;;;5073795;28;20063;-88
2021/06/30 12:32:54;;;;;;;10.35;4.60;;;17.10;90.60;;;;;;5070308;28;20400;-87
2021/06/30 12:35:41;;;;;;;8.75;3.95;;;17.20;90.70;;;;;;5071490;28;20055;-88
2021/06/30 12:38:10;;;;;;;7.38;4.00;;;17.20;90.50;;;;;;5067405;28;20056;-88
2021/06/30 12:40:37;;;;;;;6.68;4.10;;;17.20;90.80;;;;;;5073129;28;20067;-87
2021/06/30 12:43:15;;;;;;;6.72;3.83;;;17.20;90.70;;;;;;5062863;28;20049;-87
2021/06/30 12:45:52;;;;;;;8.25;4.03;;;17.20;90.70;;;;;;5061006;28;20110;-88